createdAt,value
2019-01-31T20:26:21.584Z,18.83
2019-01-31T20:28:49.842Z,18.79
2019-01-31T20:31:18.080Z,18.79
2019-01-31T20:33:46.336Z,18.70
2019-01-31T20:36:14.589Z,18.71
2019-01-31T20:38:45.704Z,18.74
2019-01-31T20:41:13.974Z,18.72
2019-01-31T20:43:42.332Z,18.67
2019-01-31T20:47:43.485Z,9.94
2019-01-31T20:50:14.804Z,0.19
2019-01-31T20:52:45.645Z,-1.32
2019-01-31T20:55:15.254Z,-1.60
2019-01-31T20:57:44.052Z,-1.68
2019-01-31T21:00:19.955Z,-1.67
2019-01-31T21:02:48.202Z,-1.68
2019-01-31T21:05:16.624Z,-1.74
2019-01-31T21:07:44.857Z,-1.74
2019-01-31T21:10:13.169Z,-1.80
2019-01-31T21:12:41.415Z,-1.80
2019-01-31T21:15:13.158Z,-1.82
2019-01-31T21:17:43.050Z,-1.81
2019-01-31T21:20:13.721Z,-1.86
2019-01-31T21:22:42.007Z,-1.88
2019-01-31T21:25:13.086Z,-1.88
2019-01-31T21:27:41.327Z,-1.92
2019-01-31T21:30:18.725Z,-1.93
2019-01-31T21:32:46.971Z,-1.98
2019-01-31T21:35:17.272Z,-1.95
2019-01-31T21:37:45.513Z,-1.95
2019-01-31T21:40:16.110Z,-2.02
2019-01-31T21:42:48.832Z,-1.99
2019-01-31T21:45:21.558Z,-1.96
2019-01-31T21:47:49.788Z,-2.01
2019-01-31T21:50:22.939Z,-2.04
2019-01-31T21:52:51.362Z,-2.03
2019-01-31T21:55:19.776Z,-2.04
2019-01-31T21:57:48.026Z,-1.99
2019-01-31T22:00:18.814Z,-2.02
2019-01-31T22:02:50.087Z,-1.97
2019-01-31T22:05:18.626Z,-2.01
2019-01-31T22:07:46.886Z,-2.01
2019-01-31T22:10:18.498Z,-1.97
2019-01-31T22:12:46.893Z,-1.97
2019-01-31T22:15:17.629Z,-1.98
2019-01-31T22:17:46.091Z,-1.98
2019-01-31T22:20:15.956Z,-2.01
2019-01-31T22:22:44.211Z,-2.03
2019-01-31T22:25:17.693Z,-2.03
2019-01-31T22:27:45.942Z,-2.03
2019-01-31T22:30:32.261Z,-2.04
2019-01-31T22:33:00.551Z,-2.07
2019-01-31T22:35:28.765Z,-2.11
2019-01-31T22:37:57.014Z,-2.14
2019-01-31T22:40:25.252Z,-2.13
2019-01-31T22:42:53.500Z,-2.14
2019-01-31T22:45:25.428Z,-2.18
2019-01-31T22:47:53.853Z,-2.10
2019-01-31T22:50:23.337Z,-2.14
2019-01-31T22:52:51.657Z,-2.13
2019-01-31T22:55:21.713Z,-2.17
2019-01-31T22:57:49.980Z,-2.15
2019-01-31T23:00:28.337Z,-2.19
2019-01-31T23:02:56.619Z,-2.20
2019-01-31T23:05:24.857Z,-2.19
2019-01-31T23:07:53.191Z,-2.23
2019-01-31T23:10:21.554Z,-2.26
2019-01-31T23:12:49.790Z,-2.28
2019-01-31T23:15:18.093Z,-2.26
2019-01-31T23:17:46.330Z,-2.27
2019-01-31T23:20:15.059Z,-2.24
2019-01-31T23:22:43.303Z,-2.29
2019-01-31T23:25:11.665Z,-2.32
2019-01-31T23:27:39.894Z,-2.30
2019-01-31T23:30:13.970Z,-2.37
2019-01-31T23:32:42.213Z,-2.39
2019-01-31T23:35:10.524Z,-2.39
2019-01-31T23:37:38.784Z,-2.31
2019-01-31T23:40:12.769Z,-2.34
2019-01-31T23:42:40.992Z,-2.35
2019-01-31T23:45:17.605Z,-2.35
2019-01-31T23:47:48.818Z,-2.37
2019-01-31T23:50:15.939Z,-2.41
2019-01-31T23:52:44.152Z,-2.39
2019-01-31T23:55:18.235Z,-2.41
2019-01-31T23:57:46.472Z,-2.39
